createdAt,value
2019-01-04T00:01:20.537Z,-1.50
2019-01-04T00:03:49.974Z,-1.50
2019-01-04T00:06:19.283Z,-1.50
2019-01-04T00:08:48.310Z,-1.50
2019-01-04T00:11:17.650Z,-1.50
2019-01-04T00:13:46.659Z,-1.60
2019-01-04T00:16:15.673Z,-1.50
2019-01-04T00:18:46.691Z,-1.50
2019-01-04T00:21:15.718Z,-1.50
2019-01-04T00:23:45.013Z,-1.50
2019-01-04T00:26:14.039Z,-1.50
2019-01-04T00:28:43.426Z,-1.50
2019-01-04T00:31:12.669Z,-1.50
2019-01-04T00:33:41.619Z,-1.50
2019-01-04T00:36:10.650Z,-1.50
2019-01-04T00:38:39.801Z,-1.50
2019-01-04T00:41:08.825Z,-1.50
2019-01-04T00:43:38.101Z,-1.50
2019-01-04T00:46:07.446Z,-1.50
2019-01-04T00:48:36.437Z,-1.40
2019-01-04T00:51:05.418Z,-1.40
2019-01-04T00:53:34.349Z,-1.40
2019-01-04T00:56:27.123Z,-1.40
2019-01-04T00:59:31.661Z,-1.40
2019-01-04T01:02:38.945Z,-1.50
2019-01-04T01:05:51.041Z,-1.50
2019-01-04T01:08:56.977Z,-1.50
2019-01-04T01:12:01.848Z,-1.50
2019-01-04T01:15:10.302Z,-1.50
2019-01-04T01:18:25.773Z,-1.50
2019-01-04T01:21:30.054Z,-1.60
2019-01-04T01:24:35.297Z,-1.60
2019-01-04T01:27:43.784Z,-1.60
2019-01-04T01:30:58.999Z,-1.60
2019-01-04T01:34:19.964Z,-1.60
2019-01-04T01:37:13.545Z,-1.60
2019-01-04T01:40:33.205Z,-1.60
2019-01-04T01:43:32.649Z,-1.50
2019-01-04T01:46:20.413Z,-1.60
2019-01-04T01:49:09.669Z,-1.60
2019-01-04T01:51:47.497Z,-1.60
2019-01-04T01:54:16.585Z,-1.70
2019-01-04T01:56:45.418Z,-1.70
2019-01-04T01:59:14.262Z,-1.70
2019-01-04T02:01:43.093Z,-1.80
2019-01-04T02:04:12.526Z,-1.80
2019-01-04T02:06:41.429Z,-1.90
2019-01-04T02:09:11.281Z,-1.90
2019-01-04T02:11:40.119Z,-2.00
2019-01-04T02:14:08.961Z,-2.10
2019-01-04T02:16:37.965Z,-2.10
2019-01-04T02:19:07.424Z,-2.20
2019-01-04T02:21:36.349Z,-2.20
2019-01-04T02:24:05.269Z,-2.20
2019-01-04T02:26:34.429Z,-2.20
2019-01-04T02:29:03.592Z,-2.20
2019-01-04T02:31:32.512Z,-2.20
2019-01-04T02:34:01.354Z,-2.20
2019-01-04T02:36:30.438Z,-2.20
2019-01-04T02:38:59.525Z,-2.10
2019-01-04T02:41:28.459Z,-2.10
2019-01-04T02:43:57.365Z,-2.10
2019-01-04T02:46:26.285Z,-2.00
2019-01-04T02:48:55.472Z,-2.00
2019-01-04T02:51:24.317Z,-2.00
2019-01-04T02:53:53.170Z,-2.00
2019-01-04T02:56:22.769Z,-2.00
2019-01-04T02:58:51.613Z,-2.00
2019-01-04T03:01:20.638Z,-2.00
2019-01-04T03:03:49.718Z,-2.00
2019-01-04T03:06:18.641Z,-2.00
2019-01-04T03:08:47.479Z,-2.10
2019-01-04T03:11:16.445Z,-2.20
2019-01-04T03:13:45.319Z,-2.30
2019-01-04T03:16:14.452Z,-2.40
2019-01-04T03:18:43.528Z,-2.40
2019-01-04T03:21:12.720Z,-2.50
2019-01-04T03:23:41.553Z,-2.50
2019-01-04T03:26:10.397Z,-2.40
2019-01-04T03:28:39.246Z,-2.40
2019-01-04T03:31:08.826Z,-2.50
2019-01-04T03:33:37.985Z,-2.50
2019-01-04T03:36:07.471Z,-2.50
2019-01-04T03:38:36.561Z,-2.50
2019-01-04T03:41:05.500Z,-2.50
2019-01-04T03:43:34.393Z,-2.50
2019-01-04T03:46:03.569Z,-2.50
2019-01-04T03:48:32.410Z,-2.50
2019-01-04T03:51:01.898Z,-2.60
2019-01-04T03:53:31.054Z,-2.60
2019-01-04T03:55:59.898Z,-2.60
2019-01-04T03:58:28.817Z,-2.70
2019-01-04T04:00:57.918Z,-2.70
2019-01-04T04:03:26.833Z,-2.70
2019-01-04T04:05:55.799Z,-2.70
2019-01-04T04:08:24.749Z,-2.80
2019-01-04T04:10:53.893Z,-2.90
2019-01-04T04:13:22.737Z,-2.90
2019-01-04T04:15:51.641Z,-3.00
2019-01-04T04:18:20.785Z,-3.00
2019-01-04T04:20:49.614Z,-3.00
2019-01-04T04:23:19.579Z,-3.10
2019-01-04T04:25:48.498Z,-3.00
2019-01-04T04:28:17.573Z,-3.10
2019-01-04T04:30:46.763Z,-3.10
2019-01-04T04:33:15.621Z,-3.10
2019-01-04T04:35:44.529Z,-3.10
2019-01-04T04:38:13.385Z,-3.10
2019-01-04T04:40:42.498Z,-3.10
2019-01-04T04:43:11.413Z,-3.10
2019-01-04T04:45:40.329Z,-3.10
2019-01-04T04:48:09.486Z,-3.10
2019-01-04T04:50:38.322Z,-3.10
2019-01-04T04:53:07.459Z,-3.10
2019-01-04T04:55:36.579Z,-3.10
2019-01-04T04:58:05.717Z,-3.10
2019-01-04T05:00:34.957Z,-3.10
2019-01-04T05:03:03.856Z,-3.10
2019-01-04T05:05:32.726Z,-3.10
2019-01-04T05:08:01.563Z,-3.10
2019-01-04T05:10:30.477Z,-3.10
2019-01-04T05:12:59.305Z,-3.10
2019-01-04T05:15:28.221Z,-3.00
2019-01-04T05:17:57.056Z,-3.00
2019-01-04T05:20:25.932Z,-3.00
2019-01-04T05:22:54.775Z,-3.10
2019-01-04T05:25:23.942Z,-3.10
2019-01-04T05:27:52.851Z,-3.10
2019-01-04T05:30:21.790Z,-3.10
2019-01-04T05:32:50.704Z,-3.10
2019-01-04T05:35:19.572Z,-3.10
2019-01-04T05:37:48.481Z,-3.10
2019-01-04T05:40:17.568Z,-3.10
2019-01-04T05:42:46.392Z,-3.10
2019-01-04T05:45:15.241Z,-3.00
2019-01-04T05:47:44.073Z,-3.00
2019-01-04T05:50:12.918Z,-2.90
2019-01-04T05:52:41.913Z,-2.90
2019-01-04T05:55:10.760Z,-2.90
2019-01-04T05:57:39.606Z,-2.80
2019-01-04T06:00:10.050Z,-2.80
2019-01-04T06:02:39.266Z,-2.80
2019-01-04T06:05:08.505Z,-2.70
2019-01-04T06:07:37.414Z,-2.70
2019-01-04T06:10:07.109Z,-2.60
2019-01-04T06:12:36.250Z,-2.60
2019-01-04T06:15:05.481Z,-2.60
2019-01-04T06:17:34.629Z,-2.60
2019-01-04T06:20:03.694Z,-2.60
2019-01-04T06:22:32.546Z,-2.50
2019-01-04T06:25:01.803Z,-2.50
2019-01-04T06:27:30.655Z,-2.50
2019-01-04T06:30:01.828Z,-2.50
2019-01-04T06:32:30.661Z,-2.50
2019-01-04T06:34:59.509Z,-2.50
2019-01-04T06:37:28.366Z,-2.50
2019-01-04T06:39:57.773Z,-2.40
2019-01-04T06:42:27.457Z,-2.40
2019-01-04T06:44:56.529Z,-2.40
2019-01-04T06:47:25.449Z,-2.40
2019-01-04T06:49:54.601Z,-2.40
2019-01-04T06:52:24.082Z,-2.30
2019-01-04T06:55:40.611Z,-2.30
2019-01-04T06:58:09.554Z,-2.30
2019-01-04T07:00:38.454Z,-2.30
2019-01-04T07:03:07.541Z,-2.20
2019-01-04T07:05:36.810Z,-2.20
2019-01-04T07:08:05.792Z,-2.20
2019-01-04T07:10:34.646Z,-2.10
2019-01-04T07:13:04.101Z,-2.00
2019-01-04T07:15:33.020Z,-2.00
2019-01-04T07:18:02.017Z,-2.00
2019-01-04T07:20:30.881Z,-1.90
2019-01-04T07:22:59.981Z,-1.90
2019-01-04T07:25:29.369Z,-1.80
2019-01-04T07:27:58.913Z,-1.80
2019-01-04T07:30:27.906Z,-1.80
2019-01-04T07:32:56.753Z,-1.80
2019-01-04T07:35:25.669Z,-1.70
2019-01-04T07:37:54.989Z,-1.70
2019-01-04T07:40:24.549Z,-1.70
2019-01-04T07:42:53.742Z,-1.70
2019-01-04T07:45:22.652Z,-1.60
2019-01-04T07:47:51.832Z,-1.60
2019-01-04T07:50:20.673Z,-1.60
2019-01-04T07:52:49.829Z,-1.60
2019-01-04T07:55:18.666Z,-1.50
2019-01-04T07:57:47.843Z,-1.50
2019-01-04T08:00:17.365Z,-1.50
2019-01-04T08:02:47.968Z,-1.50
2019-01-04T08:05:21.881Z,-1.50
2019-01-04T08:07:51.041Z,-1.40
2019-01-04T08:10:20.029Z,-1.40
2019-01-04T08:12:49.025Z,-1.40
2019-01-04T08:15:17.929Z,-1.40
2019-01-04T08:17:47.148Z,-1.30
2019-01-04T08:20:16.173Z,-1.30
2019-01-04T08:22:45.406Z,-1.30
2019-01-04T08:25:14.743Z,-1.30
2019-01-04T08:27:43.958Z,-1.30
2019-01-04T08:30:14.689Z,-1.20
2019-01-04T08:32:44.236Z,-1.20
2019-01-04T08:35:13.153Z,-1.20
2019-01-04T08:37:42.308Z,-1.10
2019-01-04T08:40:12.313Z,-1.10
2019-01-04T08:42:41.298Z,-1.10
2019-01-04T08:45:11.921Z,-1.10
2019-01-04T08:47:40.785Z,-1.10
2019-01-04T08:50:13.691Z,-1.00
2019-01-04T08:52:42.874Z,-1.00
2019-01-04T08:55:18.379Z,-1.00
2019-01-04T08:57:47.471Z,-0.90
2019-01-04T09:00:16.989Z,-0.90
2019-01-04T09:02:46.138Z,-0.90
2019-01-04T09:05:15.065Z,-0.90
2019-01-04T09:07:44.449Z,-0.90
2019-01-04T09:10:13.457Z,-0.80
2019-01-04T09:12:42.694Z,-0.70
2019-01-04T09:15:11.754Z,-0.80
2019-01-04T09:17:40.666Z,-0.70
2019-01-04T09:20:11.011Z,-0.70
2019-01-04T09:22:40.721Z,-0.70
2019-01-04T09:25:10.577Z,-0.60
2019-01-04T09:27:39.806Z,-0.50
2019-01-04T09:30:12.117Z,-0.50
2019-01-04T09:32:41.096Z,-0.50
2019-01-04T09:35:10.060Z,-0.50
2019-01-04T09:37:38.898Z,-0.50
2019-01-04T09:40:10.225Z,-0.40
2019-01-04T09:42:39.466Z,-0.40
2019-01-04T09:45:09.852Z,-0.40
2019-01-04T09:47:38.833Z,-0.40
2019-01-04T09:50:09.130Z,-0.30
2019-01-04T09:52:38.114Z,-0.30
2019-01-04T09:55:07.562Z,-0.30
2019-01-04T09:57:36.517Z,-0.30
2019-01-04T10:00:08.146Z,-0.20
2019-01-04T10:02:36.983Z,-0.20
2019-01-04T10:05:06.578Z,0.00
2019-01-04T10:07:45.257Z,0.00
2019-01-04T10:10:14.498Z,0.10
2019-01-04T10:12:43.649Z,0.10
2019-01-04T10:15:15.077Z,0.10
2019-01-04T10:17:57.206Z,0.30
2019-01-04T10:20:26.302Z,0.30
2019-01-04T10:22:55.144Z,0.20
2019-01-04T10:25:24.133Z,0.20
2019-01-04T10:27:53.361Z,0.30
2019-01-04T10:30:26.830Z,0.20
2019-01-04T10:32:55.833Z,0.10
2019-01-04T10:35:25.077Z,0.10
2019-01-04T10:37:54.393Z,0.10
2019-01-04T10:40:23.409Z,0.00
2019-01-04T10:42:52.324Z,0.10
2019-01-04T10:45:21.316Z,0.00
2019-01-04T10:47:50.558Z,-0.10
2019-01-04T10:50:19.481Z,-0.10
2019-01-04T10:52:48.341Z,-0.10
2019-01-04T10:55:17.519Z,-0.10
2019-01-04T10:57:47.149Z,-0.20
2019-01-04T11:00:16.450Z,-0.10
2019-01-04T11:02:45.473Z,-0.10
2019-01-04T11:05:14.458Z,-0.10
2019-01-04T11:07:43.385Z,0.00
2019-01-04T11:10:12.501Z,-0.10
2019-01-04T11:12:41.357Z,0.00
2019-01-04T11:15:10.341Z,0.00
2019-01-04T11:17:39.396Z,0.00
2019-01-04T11:20:43.865Z,0.10
2019-01-04T11:23:49.769Z,0.10
2019-01-04T11:26:33.142Z,0.10
2019-01-04T11:29:27.612Z,0.10
2019-01-04T11:32:13.888Z,0.10
2019-01-04T11:35:20.341Z,0.00
2019-01-04T11:38:10.529Z,0.00
2019-01-04T11:41:04.756Z,0.10
2019-01-04T11:44:02.809Z,0.10
2019-01-04T11:46:44.263Z,0.10
2019-01-04T11:49:53.391Z,0.10
2019-01-04T11:52:49.736Z,0.10
2019-01-04T11:55:18.737Z,0.10
2019-01-04T11:57:47.601Z,0.10
2019-01-04T12:00:16.538Z,0.00
2019-01-04T12:02:45.434Z,0.10
2019-01-04T12:05:16.422Z,0.30
2019-01-04T12:07:45.259Z,0.40
2019-01-04T12:10:14.193Z,0.40
2019-01-04T12:12:43.098Z,0.40
2019-01-04T12:15:12.110Z,0.40
2019-01-04T12:17:42.759Z,0.30
2019-01-04T12:20:12.021Z,0.30
2019-01-04T12:22:40.933Z,0.30
2019-01-04T12:25:09.863Z,0.30
2019-01-04T12:27:38.715Z,0.40
2019-01-04T12:30:08.789Z,0.50
2019-01-04T12:32:37.749Z,0.40
2019-01-04T12:35:07.105Z,0.50
2019-01-04T12:37:35.934Z,0.50
2019-01-04T12:40:05.433Z,0.40
2019-01-04T12:42:34.614Z,0.50
2019-01-04T12:45:03.602Z,0.30
2019-01-04T12:47:32.689Z,0.20
2019-01-04T12:50:01.714Z,0.10
2019-01-04T12:52:30.549Z,0.10
2019-01-04T12:54:59.465Z,0.00
2019-01-04T12:57:28.460Z,0.00
2019-01-04T12:59:57.486Z,-0.10
2019-01-04T13:02:26.328Z,-0.10
2019-01-04T13:04:55.182Z,-0.10
2019-01-04T13:07:24.749Z,0.00
2019-01-04T13:09:53.591Z,0.00
2019-01-04T13:12:22.697Z,0.00
2019-01-04T13:14:51.638Z,0.00
2019-01-04T13:17:20.811Z,0.00
2019-01-04T13:19:50.318Z,0.10
2019-01-04T13:22:19.484Z,0.00
2019-01-04T13:24:48.390Z,0.00
2019-01-04T13:27:17.558Z,0.00
2019-01-04T13:29:46.546Z,0.00
2019-01-04T13:32:15.650Z,0.00
2019-01-04T13:34:44.583Z,0.00
2019-01-04T13:37:13.774Z,0.00
2019-01-04T13:39:43.005Z,0.10
2019-01-04T13:42:12.694Z,0.10
2019-01-04T13:44:42.065Z,0.10
2019-01-04T13:47:10.985Z,0.00
2019-01-04T13:49:39.824Z,0.00
2019-01-04T13:52:08.691Z,0.00
2019-01-04T13:54:37.525Z,0.00
2019-01-04T13:57:06.537Z,-0.10
2019-01-04T13:59:35.702Z,0.90
2019-01-04T14:02:04.621Z,0.10
2019-01-04T14:04:33.477Z,0.00
2019-01-04T14:07:02.924Z,0.00
2019-01-04T14:09:31.770Z,0.00
2019-01-04T14:12:00.697Z,0.00
2019-01-04T14:14:29.909Z,-0.10
2019-01-04T14:16:59.202Z,-0.10
2019-01-04T14:19:28.361Z,-0.10
2019-01-04T14:21:57.293Z,-0.20
2019-01-04T14:24:26.635Z,-0.20
2019-01-04T14:26:55.554Z,-0.20
2019-01-04T14:29:24.561Z,-0.30
2019-01-04T14:31:53.491Z,-0.30
2019-01-04T14:34:22.443Z,-0.30
2019-01-04T14:36:51.416Z,-0.30
2019-01-04T14:39:20.371Z,-0.30
2019-01-04T14:41:49.298Z,-0.30
2019-01-04T14:44:18.225Z,-0.30
2019-01-04T14:46:47.141Z,-0.30
2019-01-04T14:49:16.229Z,-0.30
2019-01-04T14:51:45.205Z,-0.30
2019-01-04T14:54:14.295Z,-0.30
2019-01-04T14:56:43.138Z,-0.40
2019-01-04T14:59:11.989Z,-0.30
2019-01-04T15:01:41.177Z,-0.40
2019-01-04T15:04:10.503Z,-0.40
2019-01-04T15:06:39.815Z,-0.40
2019-01-04T15:09:09.087Z,-0.40
2019-01-04T15:11:38.250Z,-0.40
2019-01-04T15:14:07.258Z,-0.50
2019-01-04T15:16:36.113Z,-0.40
2019-01-04T15:19:06.950Z,-0.40
2019-01-04T15:21:35.798Z,-0.50
2019-01-04T15:24:04.769Z,-0.40
2019-01-04T15:26:33.866Z,-0.40
2019-01-04T15:29:02.803Z,-0.40
2019-01-04T15:31:31.713Z,-0.40
2019-01-04T15:34:00.947Z,-0.40
2019-01-04T15:36:29.809Z,-0.40
2019-01-04T15:38:58.749Z,-0.40
2019-01-04T15:41:27.674Z,-0.40
2019-01-04T15:43:56.527Z,-0.30
2019-01-04T15:46:25.509Z,-0.40
2019-01-04T15:48:54.466Z,-0.40
2019-01-04T15:51:23.641Z,-0.40
2019-01-04T15:53:52.489Z,-0.40
2019-01-04T15:56:21.420Z,-0.40
2019-01-04T15:58:50.629Z,-0.40
2019-01-04T16:01:19.553Z,-0.40
2019-01-04T16:03:48.937Z,-0.40
2019-01-04T16:06:18.110Z,-0.40
2019-01-04T16:08:47.040Z,-0.30
2019-01-04T16:11:16.045Z,-0.30
2019-01-04T16:13:44.962Z,-0.30
2019-01-04T16:16:13.826Z,-0.40
2019-01-04T16:18:42.929Z,-0.40
2019-01-04T16:21:12.040Z,-0.40
2019-01-04T16:23:41.161Z,-0.40
2019-01-04T16:26:10.093Z,-0.50
2019-01-04T16:28:39.101Z,-0.40
2019-01-04T16:31:08.361Z,-0.40
2019-01-04T16:33:37.275Z,-0.40
2019-01-04T16:36:06.231Z,-0.40
2019-01-04T16:38:35.129Z,-0.40
2019-01-04T16:41:04.083Z,-0.50
2019-01-04T16:43:32.933Z,-0.40
2019-01-04T16:46:01.857Z,-0.40
2019-01-04T16:48:31.285Z,-0.40
2019-01-04T16:51:00.376Z,-0.40
2019-01-04T16:53:29.334Z,-0.40
2019-01-04T16:55:58.335Z,-0.40
2019-01-04T16:58:27.527Z,-0.40
2019-01-04T17:00:56.438Z,-0.40
2019-01-04T17:03:25.373Z,-0.40
2019-01-04T17:05:54.470Z,-0.40
2019-01-04T17:08:23.636Z,-0.40
2019-01-04T17:10:52.647Z,-0.30
2019-01-04T17:13:21.589Z,-0.40
2019-01-04T17:15:50.433Z,-0.30
2019-01-04T17:18:19.398Z,-0.30
2019-01-04T17:20:48.538Z,-0.30
2019-01-04T17:23:17.725Z,-0.30
2019-01-04T17:25:47.992Z,-0.30
2019-01-04T17:28:17.461Z,-0.30
2019-01-04T17:30:46.442Z,-0.30
2019-01-04T17:33:15.722Z,-0.30
2019-01-04T17:35:44.809Z,-0.30
2019-01-04T17:38:13.981Z,-0.30
2019-01-04T17:40:42.897Z,-0.30
2019-01-04T17:43:11.742Z,-0.30
2019-01-04T17:45:41.046Z,-0.30
2019-01-04T17:48:10.285Z,-0.30
2019-01-04T17:50:39.124Z,-0.30
2019-01-04T17:53:08.264Z,-0.30
2019-01-04T17:55:37.105Z,-0.30
2019-01-04T17:58:05.957Z,-0.30
2019-01-04T18:00:35.034Z,-0.30
2019-01-04T18:03:03.975Z,-0.30
2019-01-04T18:05:32.897Z,-0.30
2019-01-04T18:08:01.741Z,-0.30
2019-01-04T18:10:30.610Z,-0.30
2019-01-04T18:12:59.481Z,-0.30
2019-01-04T18:15:28.412Z,-0.20
2019-01-04T18:17:58.658Z,-0.20
2019-01-04T18:20:28.279Z,-0.20
2019-01-04T18:22:57.514Z,-0.20
2019-01-04T18:25:26.541Z,-0.20
2019-01-04T18:27:55.694Z,-0.20
2019-01-04T18:30:25.178Z,-0.20
2019-01-04T18:32:54.096Z,-0.20
2019-01-04T18:35:23.009Z,-0.10
2019-01-04T18:37:51.862Z,-0.10
2019-01-04T18:40:20.958Z,-0.10
2019-01-04T18:42:49.797Z,-0.10
2019-01-04T18:45:18.805Z,-0.10
2019-01-04T18:47:47.718Z,-0.10
2019-01-04T18:50:18.375Z,-0.10
2019-01-04T18:52:47.247Z,-0.10
2019-01-04T18:55:16.199Z,-0.10
2019-01-04T18:57:45.034Z,-0.10
2019-01-04T19:00:13.986Z,0.00
2019-01-04T19:02:43.053Z,-0.10
2019-01-04T19:05:12.212Z,0.00
2019-01-04T19:07:41.133Z,0.00
2019-01-04T19:10:10.316Z,0.00
2019-01-04T19:12:39.303Z,0.00
2019-01-04T19:15:08.670Z,0.00
2019-01-04T19:17:40.546Z,0.00
2019-01-04T19:20:10.844Z,0.00
2019-01-04T19:22:42.955Z,0.00
2019-01-04T19:25:11.814Z,0.00
2019-01-04T19:27:41.081Z,-0.10
2019-01-04T19:30:11.340Z,0.00
2019-01-04T19:32:40.253Z,0.00
2019-01-04T19:35:10.206Z,0.00
2019-01-04T19:41:24.422Z,-0.10
2019-01-04T19:43:53.269Z,-0.10
2019-01-04T19:46:22.216Z,-0.10
2019-01-04T19:48:51.054Z,-0.10
2019-01-04T19:51:20.139Z,-0.10
2019-01-04T19:53:49.082Z,-0.10
2019-01-04T19:56:21.022Z,-0.10
2019-01-04T19:58:49.897Z,-0.10
2019-01-04T20:01:19.130Z,-0.10
2019-01-04T20:03:48.094Z,-0.10
2019-01-04T20:07:06.610Z,-0.10
2019-01-04T20:10:26.922Z,-0.10
2019-01-04T20:14:16.150Z,-0.10
2019-01-04T20:17:25.618Z,-0.10
2019-01-04T20:20:12.837Z,-0.10
2019-01-04T20:23:04.162Z,-0.10
2019-01-04T20:25:57.903Z,-0.10
2019-01-04T20:28:47.695Z,-0.10
2019-01-04T20:31:36.554Z,-0.10
2019-01-04T20:34:25.395Z,-0.10
2019-01-04T20:37:28.494Z,-0.10
2019-01-04T20:40:28.618Z,-0.10
2019-01-04T20:43:19.378Z,-0.10
2019-01-04T20:46:06.050Z,0.00
2019-01-04T20:49:06.182Z,0.00
2019-01-04T20:52:02.370Z,0.00
2019-01-04T20:54:49.030Z,0.00
2019-01-04T20:57:40.034Z,0.00
2019-01-04T21:00:31.478Z,0.00
2019-01-04T21:03:26.303Z,0.00
2019-01-04T21:06:22.622Z,0.00
2019-01-04T21:09:09.839Z,0.00
2019-01-04T21:11:58.697Z,0.00
2019-01-04T21:14:48.710Z,0.00
2019-01-04T21:17:50.552Z,0.00
2019-01-04T21:20:50.210Z,0.00
2019-01-04T21:23:30.627Z,0.00
2019-01-04T21:26:17.473Z,0.00
2019-01-04T21:29:04.243Z,0.00
2019-01-04T21:32:01.340Z,0.00
2019-01-04T21:34:53.939Z,0.00
2019-01-04T21:37:40.689Z,0.00
2019-01-04T21:40:34.758Z,0.00
2019-01-04T21:43:28.865Z,0.00
2019-01-04T21:46:32.220Z,0.00
2019-01-04T21:49:14.202Z,0.00
2019-01-04T21:52:02.110Z,0.00
2019-01-04T21:54:50.288Z,0.00
2019-01-04T21:57:56.450Z,0.00
2019-01-04T22:00:47.252Z,0.10
2019-01-04T22:03:29.414Z,0.10
2019-01-04T22:06:16.098Z,0.10
2019-01-04T22:09:00.705Z,0.10
2019-01-04T22:11:47.492Z,0.10
2019-01-04T22:14:41.566Z,0.10
2019-01-04T22:17:28.367Z,0.10
2019-01-04T22:20:26.906Z,0.10
2019-01-04T22:23:12.790Z,0.10
2019-01-04T22:25:59.370Z,0.10
2019-01-04T22:29:02.616Z,0.10
2019-01-04T22:31:49.314Z,0.10
2019-01-04T22:34:36.282Z,0.00
2019-01-04T22:37:24.389Z,0.10
2019-01-04T22:40:13.837Z,0.10
2019-01-04T22:43:14.119Z,0.10
2019-01-04T22:46:14.051Z,0.10
2019-01-04T22:49:17.182Z,0.10
2019-01-04T22:52:08.181Z,0.10
2019-01-04T22:54:59.357Z,0.10
2019-01-04T22:57:53.294Z,0.10
2019-01-04T23:00:55.962Z,0.10
2019-01-04T23:03:42.641Z,0.10
2019-01-04T23:06:29.345Z,0.10
2019-01-04T23:09:14.528Z,0.10
2019-01-04T23:12:01.351Z,0.10
2019-01-04T23:14:49.002Z,0.20
2019-01-04T23:17:25.539Z,0.20
2019-01-04T23:20:11.918Z,0.20
2019-01-04T23:23:03.387Z,0.20
2019-01-04T23:25:50.989Z,0.20
2019-01-04T23:28:51.094Z,0.20
2019-01-04T23:31:50.926Z,0.20
2019-01-04T23:34:37.501Z,0.20
2019-01-04T23:37:37.794Z,0.20
2019-01-04T23:40:30.369Z,0.30
2019-01-04T23:43:17.278Z,0.20
2019-01-04T23:46:04.143Z,0.30
2019-01-04T23:48:43.245Z,0.20
2019-01-04T23:51:30.254Z,0.20
2019-01-04T23:54:23.925Z,0.30
2019-01-04T23:57:14.934Z,0.30
